sensor_id;sensor_type;location;lat;lon;timestamp;pressure;altitude;pressure_sealevel;temperature
20103;BMP180;10210;52.284;9.892;2023-04-08T00:01:13;101176.00;;;13.20
20103;BMP180;10210;52.284;9.892;2023-04-08T00:03:38;101184.00;;;13.20
20103;BMP180;10210;52.284;9.892;2023-04-08T00:06:04;101179.00;;;13.20
20103;BMP180;10210;52.284;9.892;2023-04-08T00:08:30;101190.00;;;13.20
20103;BMP180;10210;52.284;9.892;2023-04-08T00:10:55;101177.00;;;13.20
20103;BMP180;10210;52.284;9.892;2023-04-08T00:13:21;101178.00;;;13.20
20103;BMP180;10210;52.284;9.892;2023-04-08T00:15:47;101187.00;;;13.20
20103;BMP180;10210;52.284;9.892;2023-04-08T00:18:14;101184.00;;;13.20
20103;BMP180;10210;52.284;9.892;2023-04-08T00:20:42;101185.00;;;13.20
20103;BMP180;10210;52.284;9.892;2023-04-08T00:23:08;101186.00;;;13.10
20103;BMP180;10210;52.284;9.892;2023-04-08T00:25:34;101182.00;;;13.10
20103;BMP180;10210;52.284;9.892;2023-04-08T00:28:00;101191.00;;;13.20
20103;BMP180;10210;52.284;9.892;2023-04-08T00:30:25;101185.00;;;13.20
20103;BMP180;10210;52.284;9.892;2023-04-08T00:32:54;101182.00;;;13.20
20103;BMP180;10210;52.284;9.892;2023-04-08T00:35:20;101196.00;;;13.10
20103;BMP180;10210;52.284;9.892;2023-04-08T00:37:45;101193.00;;;13.20
20103;BMP180;10210;52.284;9.892;2023-04-08T00:40:12;101184.00;;;13.10
20103;BMP180;10210;52.284;9.892;2023-04-08T00:42:38;101195.00;;;13.10
20103;BMP180;10210;52.284;9.892;2023-04-08T00:45:04;101183.00;;;13.10
20103;BMP180;10210;52.284;9.892;2023-04-08T00:47:30;101181.00;;;13.10
20103;BMP180;10210;52.284;9.892;2023-04-08T00:49:56;101182.00;;;13.00
20103;BMP180;10210;52.284;9.892;2023-04-08T00:52:22;101183.00;;;13.00
20103;BMP180;10210;52.284;9.892;2023-04-08T00:54:48;101177.00;;;13.00
20103;BMP180;10210;52.284;9.892;2023-04-08T00:57:13;101178.00;;;13.00
20103;BMP180;10210;52.284;9.892;2023-04-08T00:59:41;101184.00;;;13.00
20103;BMP180;10210;52.284;9.892;2023-04-08T01:02:42;101179.00;;;12.90
20103;BMP180;10210;52.284;9.892;2023-04-08T01:08:16;101193.00;;;12.90
20103;BMP180;10210;52.284;9.892;2023-04-08T01:10:47;101186.00;;;12.90
20103;BMP180;10210;52.284;9.892;2023-04-08T01:13:16;101188.00;;;12.80
20103;BMP180;10210;52.284;9.892;2023-04-08T01:15:44;101184.00;;;12.80
20103;BMP180;10210;52.284;9.892;2023-04-08T01:18:12;101191.00;;;12.80
20103;BMP180;10210;52.284;9.892;2023-04-08T01:20:41;101188.00;;;12.80
20103;BMP180;10210;52.284;9.892;2023-04-08T01:23:28;101185.00;;;12.80
20103;BMP180;10210;52.284;9.892;2023-04-08T01:25:56;101192.00;;;12.80
20103;BMP180;10210;52.284;9.892;2023-04-08T01:28:27;101187.00;;;12.80
20103;BMP180;10210;52.284;9.892;2023-04-08T01:30:58;101192.00;;;12.70
20103;BMP180;10210;52.284;9.892;2023-04-08T01:33:27;101193.00;;;12.70
20103;BMP180;10210;52.284;9.892;2023-04-08T01:35:55;101189.00;;;12.70
20103;BMP180;10210;52.284;9.892;2023-04-08T01:38:23;101183.00;;;12.80
20103;BMP180;10210;52.284;9.892;2023-04-08T01:40:52;101185.00;;;12.80
20103;BMP180;10210;52.284;9.892;2023-04-08T01:43:19;101177.00;;;12.80
20103;BMP180;10210;52.284;9.892;2023-04-08T01:45:47;101181.00;;;12.80
20103;BMP180;10210;52.284;9.892;2023-04-08T01:48:15;101158.00;;;12.80
20103;BMP180;10210;52.284;9.892;2023-04-08T01:50:43;101166.00;;;12.80
20103;BMP180;10210;52.284;9.892;2023-04-08T01:53:10;101174.00;;;12.80
20103;BMP180;10210;52.284;9.892;2023-04-08T01:55:39;101172.00;;;12.80
20103;BMP180;10210;52.284;9.892;2023-04-08T01:58:08;101172.00;;;12.80
20103;BMP180;10210;52.284;9.892;2023-04-08T02:00:39;101170.00;;;12.90
20103;BMP180;10210;52.284;9.892;2023-04-08T02:03:10;101170.00;;;12.80
20103;BMP180;10210;52.284;9.892;2023-04-08T02:05:36;101174.00;;;12.90
20103;BMP180;10210;52.284;9.892;2023-04-08T02:08:03;101165.00;;;12.90
20103;BMP180;10210;52.284;9.892;2023-04-08T02:10:29;101175.00;;;12.90
20103;BMP180;10210;52.284;9.892;2023-04-08T02:12:55;101170.00;;;12.90
20103;BMP180;10210;52.284;9.892;2023-04-08T02:15:21;101175.00;;;12.90
20103;BMP180;10210;52.284;9.892;2023-04-08T02:18:14;101177.00;;;12.80
20103;BMP180;10210;52.284;9.892;2023-04-08T02:20:49;101176.00;;;12.90
20103;BMP180;10210;52.284;9.892;2023-04-08T02:23:23;101174.00;;;12.80
20103;BMP180;10210;52.284;9.892;2023-04-08T02:25:52;101171.00;;;12.90
20103;BMP180;10210;52.284;9.892;2023-04-08T02:28:21;101172.00;;;12.90
20103;BMP180;10210;52.284;9.892;2023-04-08T02:30:51;101177.00;;;12.90
20103;BMP180;10210;52.284;9.892;2023-04-08T02:33:20;101185.00;;;12.90
20103;BMP180;10210;52.284;9.892;2023-04-08T02:35:51;101175.00;;;12.90
20103;BMP180;10210;52.284;9.892;2023-04-08T02:38:19;101178.00;;;12.90
20103;BMP180;10210;52.284;9.892;2023-04-08T02:40:49;101174.00;;;12.90
20103;BMP180;10210;52.284;9.892;2023-04-08T02:43:15;101182.00;;;12.80
20103;BMP180;10210;52.284;9.892;2023-04-08T02:45:43;101179.00;;;12.80
20103;BMP180;10210;52.284;9.892;2023-04-08T02:48:09;101175.00;;;12.80
20103;BMP180;10210;52.284;9.892;2023-04-08T02:50:35;101189.00;;;12.80
20103;BMP180;10210;52.284;9.892;2023-04-08T02:53:01;101185.00;;;12.80
20103;BMP180;10210;52.284;9.892;2023-04-08T02:55:27;101179.00;;;12.80
20103;BMP180;10210;52.284;9.892;2023-04-08T02:57:52;101192.00;;;12.80
20103;BMP180;10210;52.284;9.892;2023-04-08T03:00:18;101193.00;;;12.80
20103;BMP180;10210;52.284;9.892;2023-04-08T03:02:43;101196.00;;;12.80
20103;BMP180;10210;52.284;9.892;2023-04-08T03:05:09;101198.00;;;12.80
20103;BMP180;10210;52.284;9.892;2023-04-08T03:07:35;101194.00;;;12.80
20103;BMP180;10210;52.284;9.892;2023-04-08T03:10:02;101203.00;;;12.80
20103;BMP180;10210;52.284;9.892;2023-04-08T03:12:27;101194.00;;;12.70
20103;BMP180;10210;52.284;9.892;2023-04-08T03:14:53;101198.00;;;12.70
20103;BMP180;10210;52.284;9.892;2023-04-08T03:17:20;101198.00;;;12.70
20103;BMP180;10210;52.284;9.892;2023-04-08T03:19:45;101202.00;;;12.70
20103;BMP180;10210;52.284;9.892;2023-04-08T03:22:12;101197.00;;;12.70
20103;BMP180;10210;52.284;9.892;2023-04-08T03:24:38;101201.00;;;12.70
20103;BMP180;10210;52.284;9.892;2023-04-08T03:27:04;101207.00;;;12.60
20103;BMP180;10210;52.284;9.892;2023-04-08T03:29:30;101202.00;;;12.60
20103;BMP180;10210;52.284;9.892;2023-04-08T03:31:56;101207.00;;;12.60
20103;BMP180;10210;52.284;9.892;2023-04-08T03:34:22;101207.00;;;12.60
20103;BMP180;10210;52.284;9.892;2023-04-08T03:36:47;101208.00;;;12.60
20103;BMP180;10210;52.284;9.892;2023-04-08T03:39:13;101199.00;;;12.60
20103;BMP180;10210;52.284;9.892;2023-04-08T03:41:39;101210.00;;;12.60
20103;BMP180;10210;52.284;9.892;2023-04-08T03:44:04;101201.00;;;12.60
20103;BMP180;10210;52.284;9.892;2023-04-08T03:46:30;101203.00;;;12.60
20103;BMP180;10210;52.284;9.892;2023-04-08T03:48:56;101195.00;;;12.60
20103;BMP180;10210;52.284;9.892;2023-04-08T03:51:21;101197.00;;;12.60
20103;BMP180;10210;52.284;9.892;2023-04-08T03:53:47;101190.00;;;12.50
20103;BMP180;10210;52.284;9.892;2023-04-08T03:56:14;101195.00;;;12.50
20103;BMP180;10210;52.284;9.892;2023-04-08T03:58:39;101197.00;;;12.50
20103;BMP180;10210;52.284;9.892;2023-04-08T04:01:05;101185.00;;;12.50
20103;BMP180;10210;52.284;9.892;2023-04-08T04:03:31;101196.00;;;12.50
20103;BMP180;10210;52.284;9.892;2023-04-08T04:05:56;101203.00;;;12.50
20103;BMP180;10210;52.284;9.892;2023-04-08T04:08:22;101198.00;;;12.50
20103;BMP180;10210;52.284;9.892;2023-04-08T04:10:47;101198.00;;;12.50
20103;BMP180;10210;52.284;9.892;2023-04-08T04:13:13;101202.00;;;12.50
20103;BMP180;10210;52.284;9.892;2023-04-08T04:15:40;101209.00;;;12.50
20103;BMP180;10210;52.284;9.892;2023-04-08T04:18:06;101208.00;;;12.50
20103;BMP180;10210;52.284;9.892;2023-04-08T04:20:32;101215.00;;;12.50
20103;BMP180;10210;52.284;9.892;2023-04-08T04:22:58;101220.00;;;12.50
20103;BMP180;10210;52.284;9.892;2023-04-08T04:25:24;101207.00;;;12.50
20103;BMP180;10210;52.284;9.892;2023-04-08T04:27:49;101219.00;;;12.50
20103;BMP180;10210;52.284;9.892;2023-04-08T04:30:15;101221.00;;;12.40
20103;BMP180;10210;52.284;9.892;2023-04-08T04:32:43;101229.00;;;12.40
20103;BMP180;10210;52.284;9.892;2023-04-08T04:35:09;101219.00;;;12.40
20103;BMP180;10210;52.284;9.892;2023-04-08T04:37:35;101227.00;;;12.40
20103;BMP180;10210;52.284;9.892;2023-04-08T04:40:02;101228.00;;;12.40
20103;BMP180;10210;52.284;9.892;2023-04-08T04:42:28;101228.00;;;12.30
20103;BMP180;10210;52.284;9.892;2023-04-08T04:44:54;101234.00;;;12.30
20103;BMP180;10210;52.284;9.892;2023-04-08T04:47:20;101243.00;;;12.30
20103;BMP180;10210;52.284;9.892;2023-04-08T04:49:46;101236.00;;;12.30
20103;BMP180;10210;52.284;9.892;2023-04-08T04:52:11;101237.00;;;12.30
20103;BMP180;10210;52.284;9.892;2023-04-08T04:54:37;101247.00;;;12.30
20103;BMP180;10210;52.284;9.892;2023-04-08T04:57:03;101241.00;;;12.30
20103;BMP180;10210;52.284;9.892;2023-04-08T04:59:28;101239.00;;;12.30
20103;BMP180;10210;52.284;9.892;2023-04-08T05:01:54;101246.00;;;12.30
20103;BMP180;10210;52.284;9.892;2023-04-08T05:04:22;101248.00;;;12.30
20103;BMP180;10210;52.284;9.892;2023-04-08T05:06:48;101250.00;;;12.30
20103;BMP180;10210;52.284;9.892;2023-04-08T05:09:14;101263.00;;;12.30
20103;BMP180;10210;52.284;9.892;2023-04-08T05:11:40;101263.00;;;12.30
20103;BMP180;10210;52.284;9.892;2023-04-08T05:14:05;101261.00;;;12.20
20103;BMP180;10210;52.284;9.892;2023-04-08T05:16:32;101263.00;;;12.20
20103;BMP180;10210;52.284;9.892;2023-04-08T05:18:58;101269.00;;;12.20
20103;BMP180;10210;52.284;9.892;2023-04-08T05:21:23;101255.00;;;12.20
20103;BMP180;10210;52.284;9.892;2023-04-08T05:23:50;101260.00;;;12.10
20103;BMP180;10210;52.284;9.892;2023-04-08T05:26:21;101260.00;;;12.10
20103;BMP180;10210;52.284;9.892;2023-04-08T05:28:48;101266.00;;;12.10
20103;BMP180;10210;52.284;9.892;2023-04-08T05:31:20;101257.00;;;12.00
20103;BMP180;10210;52.284;9.892;2023-04-08T05:33:47;101267.00;;;12.00
20103;BMP180;10210;52.284;9.892;2023-04-08T05:36:13;101266.00;;;12.00
20103;BMP180;10210;52.284;9.892;2023-04-08T05:38:39;101267.00;;;12.00
20103;BMP180;10210;52.284;9.892;2023-04-08T05:41:07;101269.00;;;12.10
20103;BMP180;10210;52.284;9.892;2023-04-08T05:43:33;101264.00;;;12.10
20103;BMP180;10210;52.284;9.892;2023-04-08T05:45:59;101279.00;;;12.10
20103;BMP180;10210;52.284;9.892;2023-04-08T05:48:24;101282.00;;;12.10
20103;BMP180;10210;52.284;9.892;2023-04-08T05:50:50;101267.00;;;12.00
20103;BMP180;10210;52.284;9.892;2023-04-08T05:53:19;101286.00;;;12.00
20103;BMP180;10210;52.284;9.892;2023-04-08T05:55:48;101287.00;;;12.10
20103;BMP180;10210;52.284;9.892;2023-04-08T05:58:13;101291.00;;;12.00
20103;BMP180;10210;52.284;9.892;2023-04-08T06:00:39;101289.00;;;12.00
20103;BMP180;10210;52.284;9.892;2023-04-08T06:03:05;101298.00;;;12.00
20103;BMP180;10210;52.284;9.892;2023-04-08T06:05:30;101303.00;;;12.00
20103;BMP180;10210;52.284;9.892;2023-04-08T06:08:04;101290.00;;;12.00
20103;BMP180;10210;52.284;9.892;2023-04-08T06:10:30;101300.00;;;12.00
20103;BMP180;10210;52.284;9.892;2023-04-08T06:12:56;101297.00;;;12.00
20103;BMP180;10210;52.284;9.892;2023-04-08T06:15:21;101295.00;;;12.00
20103;BMP180;10210;52.284;9.892;2023-04-08T06:17:55;101300.00;;;11.90
20103;BMP180;10210;52.284;9.892;2023-04-08T06:20:21;101300.00;;;12.00
20103;BMP180;10210;52.284;9.892;2023-04-08T06:22:47;101298.00;;;11.90
20103;BMP180;10210;52.284;9.892;2023-04-08T06:25:13;101302.00;;;11.90
20103;BMP180;10210;52.284;9.892;2023-04-08T06:27:39;101306.00;;;11.90
20103;BMP180;10210;52.284;9.892;2023-04-08T06:30:05;101312.00;;;11.90
20103;BMP180;10210;52.284;9.892;2023-04-08T06:32:31;101308.00;;;11.90
20103;BMP180;10210;52.284;9.892;2023-04-08T06:34:57;101312.00;;;11.90
20103;BMP180;10210;52.284;9.892;2023-04-08T06:37:22;101316.00;;;11.90
20103;BMP180;10210;52.284;9.892;2023-04-08T06:39:48;101306.00;;;11.90
20103;BMP180;10210;52.284;9.892;2023-04-08T06:42:14;101310.00;;;11.90
20103;BMP180;10210;52.284;9.892;2023-04-08T06:44:40;101314.00;;;11.90
20103;BMP180;10210;52.284;9.892;2023-04-08T06:47:05;101318.00;;;11.90
20103;BMP180;10210;52.284;9.892;2023-04-08T06:49:39;101319.00;;;11.90
20103;BMP180;10210;52.284;9.892;2023-04-08T06:52:05;101318.00;;;11.90
20103;BMP180;10210;52.284;9.892;2023-04-08T06:54:31;101321.00;;;11.90
20103;BMP180;10210;52.284;9.892;2023-04-08T06:56:56;101328.00;;;12.00
20103;BMP180;10210;52.284;9.892;2023-04-08T06:59:22;101337.00;;;12.00
20103;BMP180;10210;52.284;9.892;2023-04-08T07:01:48;101337.00;;;12.00
20103;BMP180;10210;52.284;9.892;2023-04-08T07:04:22;101334.00;;;12.00
20103;BMP180;10210;52.284;9.892;2023-04-08T07:06:48;101338.00;;;12.00
20103;BMP180;10210;52.284;9.892;2023-04-08T07:09:13;101336.00;;;12.00
20103;BMP180;10210;52.284;9.892;2023-04-08T07:11:39;101339.00;;;12.00
20103;BMP180;10210;52.284;9.892;2023-04-08T07:14:04;101342.00;;;12.00
20103;BMP180;10210;52.284;9.892;2023-04-08T07:16:45;101349.00;;;12.10
20103;BMP180;10210;52.284;9.892;2023-04-08T07:19:11;101349.00;;;12.10
20103;BMP180;10210;52.284;9.892;2023-04-08T07:21:36;101347.00;;;12.00
20103;BMP180;10210;52.284;9.892;2023-04-08T07:24:02;101350.00;;;12.00
20103;BMP180;10210;52.284;9.892;2023-04-08T07:26:27;101346.00;;;12.10
20103;BMP180;10210;52.284;9.892;2023-04-08T07:28:53;101344.00;;;12.10
20103;BMP180;10210;52.284;9.892;2023-04-08T07:31:19;101351.00;;;12.10
20103;BMP180;10210;52.284;9.892;2023-04-08T07:33:45;101350.00;;;12.10
20103;BMP180;10210;52.284;9.892;2023-04-08T07:36:12;101356.00;;;12.10
20103;BMP180;10210;52.284;9.892;2023-04-08T07:38:39;101356.00;;;12.10
20103;BMP180;10210;52.284;9.892;2023-04-08T07:41:05;101351.00;;;12.10
20103;BMP180;10210;52.284;9.892;2023-04-08T07:43:31;101366.00;;;12.10
20103;BMP180;10210;52.284;9.892;2023-04-08T07:46:03;101362.00;;;12.20
20103;BMP180;10210;52.284;9.892;2023-04-08T07:48:30;101361.00;;;12.20
20103;BMP180;10210;52.284;9.892;2023-04-08T07:50:57;101369.00;;;12.20
20103;BMP180;10210;52.284;9.892;2023-04-08T07:53:23;101360.00;;;12.20
20103;BMP180;10210;52.284;9.892;2023-04-08T07:55:51;101358.00;;;12.20
20103;BMP180;10210;52.284;9.892;2023-04-08T07:58:23;101360.00;;;12.20
20103;BMP180;10210;52.284;9.892;2023-04-08T08:00:49;101363.00;;;12.20
20103;BMP180;10210;52.284;9.892;2023-04-08T08:03:16;101366.00;;;12.20
20103;BMP180;10210;52.284;9.892;2023-04-08T08:05:42;101378.00;;;12.20
20103;BMP180;10210;52.284;9.892;2023-04-08T08:08:07;101379.00;;;12.20
20103;BMP180;10210;52.284;9.892;2023-04-08T08:10:39;101378.00;;;12.30
20103;BMP180;10210;52.284;9.892;2023-04-08T08:13:08;101387.00;;;12.30
20103;BMP180;10210;52.284;9.892;2023-04-08T08:15:33;101382.00;;;12.30
20103;BMP180;10210;52.284;9.892;2023-04-08T08:17:59;101386.00;;;12.40
20103;BMP180;10210;52.284;9.892;2023-04-08T08:20:25;101395.00;;;12.40
20103;BMP180;10210;52.284;9.892;2023-04-08T08:22:51;101402.00;;;12.40
20103;BMP180;10210;52.284;9.892;2023-04-08T08:25:30;101396.00;;;12.40
20103;BMP180;10210;52.284;9.892;2023-04-08T08:27:56;101395.00;;;12.40
20103;BMP180;10210;52.284;9.892;2023-04-08T08:30:22;101394.00;;;12.50
20103;BMP180;10210;52.284;9.892;2023-04-08T08:32:47;101395.00;;;12.50
20103;BMP180;10210;52.284;9.892;2023-04-08T08:35:14;101408.00;;;12.50
20103;BMP180;10210;52.284;9.892;2023-04-08T08:37:53;101405.00;;;12.50
20103;BMP180;10210;52.284;9.892;2023-04-08T08:40:19;101412.00;;;12.60
20103;BMP180;10210;52.284;9.892;2023-04-08T08:42:55;101408.00;;;12.60
20103;BMP180;10210;52.284;9.892;2023-04-08T08:45:23;101404.00;;;12.60
20103;BMP180;10210;52.284;9.892;2023-04-08T08:48:09;101413.00;;;12.50
20103;BMP180;10210;52.284;9.892;2023-04-08T08:50:35;101413.00;;;12.60
20103;BMP180;10210;52.284;9.892;2023-04-08T08:53:01;101412.00;;;12.60
20103;BMP180;10210;52.284;9.892;2023-04-08T08:55:31;101400.00;;;12.70
20103;BMP180;10210;52.284;9.892;2023-04-08T08:58:18;101418.00;;;12.70
20103;BMP180;10210;52.284;9.892;2023-04-08T09:00:44;101424.00;;;12.70
20103;BMP180;10210;52.284;9.892;2023-04-08T09:03:21;101420.00;;;12.70
20103;BMP180;10210;52.284;9.892;2023-04-08T09:06:05;101429.00;;;12.70
20103;BMP180;10210;52.284;9.892;2023-04-08T09:08:36;101426.00;;;12.80
20103;BMP180;10210;52.284;9.892;2023-04-08T09:11:16;101428.00;;;12.70
20103;BMP180;10210;52.284;9.892;2023-04-08T09:14:02;101426.00;;;12.70
20103;BMP180;10210;52.284;9.892;2023-04-08T09:16:30;101435.00;;;12.70
20103;BMP180;10210;52.284;9.892;2023-04-08T09:19:09;101428.00;;;12.70
20103;BMP180;10210;52.284;9.892;2023-04-08T09:21:38;101435.00;;;13.40
20103;BMP180;10210;52.284;9.892;2023-04-08T09:24:08;101436.00;;;13.00
20103;BMP180;10210;52.284;9.892;2023-04-08T09:26:35;101436.00;;;12.90
20103;BMP180;10210;52.284;9.892;2023-04-08T09:29:07;101444.00;;;12.80
20103;BMP180;10210;52.284;9.892;2023-04-08T09:31:38;101440.00;;;12.80
20103;BMP180;10210;52.284;9.892;2023-04-08T09:34:15;101445.00;;;12.70
20103;BMP180;10210;52.284;9.892;2023-04-08T09:36:43;101456.00;;;12.80
20103;BMP180;10210;52.284;9.892;2023-04-08T09:39:09;101454.00;;;12.70
20103;BMP180;10210;52.284;9.892;2023-04-08T09:41:38;101466.00;;;12.70
20103;BMP180;10210;52.284;9.892;2023-04-08T09:44:14;101471.00;;;12.70
20103;BMP180;10210;52.284;9.892;2023-04-08T09:49:37;101471.00;;;12.60
20103;BMP180;10210;52.284;9.892;2023-04-08T09:52:14;101462.00;;;12.60
20103;BMP180;10210;52.284;9.892;2023-04-08T09:57:45;101473.00;;;12.60
20103;BMP180;10210;52.284;9.892;2023-04-08T10:00:14;101469.00;;;12.60
20103;BMP180;10210;52.284;9.892;2023-04-08T10:05:47;101477.00;;;12.70
20103;BMP180;10210;52.284;9.892;2023-04-08T10:08:14;101468.00;;;12.70
20103;BMP180;10210;52.284;9.892;2023-04-08T10:10:41;101466.00;;;12.70
20103;BMP180;10210;52.284;9.892;2023-04-08T10:13:07;101469.00;;;12.70
20103;BMP180;10210;52.284;9.892;2023-04-08T10:15:35;101470.00;;;12.80
20103;BMP180;10210;52.284;9.892;2023-04-08T10:23:07;101476.00;;;12.80
20103;BMP180;10210;52.284;9.892;2023-04-08T10:25:45;101473.00;;;12.70
20103;BMP180;10210;52.284;9.892;2023-04-08T10:30:38;101473.00;;;12.80
20103;BMP180;10210;52.284;9.892;2023-04-08T10:33:10;101472.00;;;12.80
20103;BMP180;10210;52.284;9.892;2023-04-08T10:35:42;101469.00;;;12.80
20103;BMP180;10210;52.284;9.892;2023-04-08T10:38:08;101465.00;;;12.80
20103;BMP180;10210;52.284;9.892;2023-04-08T10:40:38;101471.00;;;12.80
20103;BMP180;10210;52.284;9.892;2023-04-08T10:43:06;101477.00;;;12.70
20103;BMP180;10210;52.284;9.892;2023-04-08T10:45:33;101476.00;;;12.80
20103;BMP180;10210;52.284;9.892;2023-04-08T10:48:23;101482.00;;;12.70
20103;BMP180;10210;52.284;9.892;2023-04-08T10:50:57;101477.00;;;12.80
20103;BMP180;10210;52.284;9.892;2023-04-08T10:53:33;101468.00;;;12.80
20103;BMP180;10210;52.284;9.892;2023-04-08T10:56:12;101470.00;;;12.80
20103;BMP180;10210;52.284;9.892;2023-04-08T10:58:52;101460.00;;;12.80
20103;BMP180;10210;52.284;9.892;2023-04-08T11:01:19;101476.00;;;12.80
20103;BMP180;10210;52.284;9.892;2023-04-08T11:03:46;101483.00;;;12.80
20103;BMP180;10210;52.284;9.892;2023-04-08T11:06:11;101472.00;;;12.80
20103;BMP180;10210;52.284;9.892;2023-04-08T11:08:40;101477.00;;;12.80
20103;BMP180;10210;52.284;9.892;2023-04-08T11:11:07;101480.00;;;12.80
20103;BMP180;10210;52.284;9.892;2023-04-08T11:13:39;101483.00;;;12.80
20103;BMP180;10210;52.284;9.892;2023-04-08T11:16:07;101477.00;;;12.80
20103;BMP180;10210;52.284;9.892;2023-04-08T11:18:38;101490.00;;;12.80
20103;BMP180;10210;52.284;9.892;2023-04-08T11:21:11;101483.00;;;12.80
20103;BMP180;10210;52.284;9.892;2023-04-08T11:23:37;101487.00;;;12.90
20103;BMP180;10210;52.284;9.892;2023-04-08T11:26:03;101481.00;;;12.90
20103;BMP180;10210;52.284;9.892;2023-04-08T11:28:29;101481.00;;;12.90
20103;BMP180;10210;52.284;9.892;2023-04-08T11:30:56;101483.00;;;12.90
20103;BMP180;10210;52.284;9.892;2023-04-08T11:33:24;101485.00;;;13.00
20103;BMP180;10210;52.284;9.892;2023-04-08T11:35:51;101485.00;;;12.90
20103;BMP180;10210;52.284;9.892;2023-04-08T11:38:22;101497.00;;;13.00
20103;BMP180;10210;52.284;9.892;2023-04-08T11:40:56;101492.00;;;13.00
20103;BMP180;10210;52.284;9.892;2023-04-08T11:43:26;101494.00;;;13.00
20103;BMP180;10210;52.284;9.892;2023-04-08T11:45:52;101500.00;;;13.00
20103;BMP180;10210;52.284;9.892;2023-04-08T11:48:17;101505.00;;;13.00
20103;BMP180;10210;52.284;9.892;2023-04-08T11:50:44;101497.00;;;13.00
20103;BMP180;10210;52.284;9.892;2023-04-08T11:53:21;101515.00;;;12.90
20103;BMP180;10210;52.284;9.892;2023-04-08T11:55:53;101513.00;;;12.80
20103;BMP180;10210;52.284;9.892;2023-04-08T11:58:25;101509.00;;;12.80
20103;BMP180;10210;52.284;9.892;2023-04-08T12:00:50;101502.00;;;12.80
20103;BMP180;10210;52.284;9.892;2023-04-08T12:03:16;101510.00;;;12.80
20103;BMP180;10210;52.284;9.892;2023-04-08T12:05:42;101505.00;;;12.80
20103;BMP180;10210;52.284;9.892;2023-04-08T12:08:07;101504.00;;;12.90
20103;BMP180;10210;52.284;9.892;2023-04-08T12:10:39;101507.00;;;12.90
20103;BMP180;10210;52.284;9.892;2023-04-08T12:13:04;101497.00;;;12.90
20103;BMP180;10210;52.284;9.892;2023-04-08T12:15:31;101499.00;;;13.00
20103;BMP180;10210;52.284;9.892;2023-04-08T12:17:57;101498.00;;;13.00
20103;BMP180;10210;52.284;9.892;2023-04-08T12:20:22;101507.00;;;13.00
20103;BMP180;10210;52.284;9.892;2023-04-08T12:22:48;101500.00;;;13.00
20103;BMP180;10210;52.284;9.892;2023-04-08T12:25:14;101511.00;;;13.00
20103;BMP180;10210;52.284;9.892;2023-04-08T12:27:40;101518.00;;;13.00
20103;BMP180;10210;52.284;9.892;2023-04-08T12:30:06;101505.00;;;13.00
20103;BMP180;10210;52.284;9.892;2023-04-08T12:32:32;101504.00;;;13.10
20103;BMP180;10210;52.284;9.892;2023-04-08T12:35:07;101510.00;;;13.10
20103;BMP180;10210;52.284;9.892;2023-04-08T12:37:32;101502.00;;;13.10
20103;BMP180;10210;52.284;9.892;2023-04-08T12:40:01;101491.00;;;13.20
20103;BMP180;10210;52.284;9.892;2023-04-08T12:42:27;101512.00;;;13.20
20103;BMP180;10210;52.284;9.892;2023-04-08T12:44:53;101506.00;;;13.20
20103;BMP180;10210;52.284;9.892;2023-04-08T12:47:19;101502.00;;;13.20
20103;BMP180;10210;52.284;9.892;2023-04-08T12:49:44;101505.00;;;13.30
20103;BMP180;10210;52.284;9.892;2023-04-08T12:52:10;101500.00;;;13.30
20103;BMP180;10210;52.284;9.892;2023-04-08T12:54:39;101501.00;;;13.30
20103;BMP180;10210;52.284;9.892;2023-04-08T12:57:05;101512.00;;;13.30
20103;BMP180;10210;52.284;9.892;2023-04-08T12:59:30;101502.00;;;13.30
20103;BMP180;10210;52.284;9.892;2023-04-08T13:01:58;101496.00;;;13.40
20103;BMP180;10210;52.284;9.892;2023-04-08T13:04:24;101505.00;;;13.40
20103;BMP180;10210;52.284;9.892;2023-04-08T13:06:49;101492.00;;;13.50
20103;BMP180;10210;52.284;9.892;2023-04-08T13:09:18;101487.00;;;13.60
20103;BMP180;10210;52.284;9.892;2023-04-08T13:11:44;101482.00;;;13.70
20103;BMP180;10210;52.284;9.892;2023-04-08T13:14:10;101483.00;;;13.70
20103;BMP180;10210;52.284;9.892;2023-04-08T13:16:36;101497.00;;;13.80
20103;BMP180;10210;52.284;9.892;2023-04-08T13:19:01;101489.00;;;13.80
20103;BMP180;10210;52.284;9.892;2023-04-08T13:21:27;101494.00;;;13.90
20103;BMP180;10210;52.284;9.892;2023-04-08T13:23:53;101495.00;;;13.90
20103;BMP180;10210;52.284;9.892;2023-04-08T13:26:18;101504.00;;;13.90
20103;BMP180;10210;52.284;9.892;2023-04-08T13:28:45;101494.00;;;14.00
20103;BMP180;10210;52.284;9.892;2023-04-08T13:31:11;101504.00;;;14.00
20103;BMP180;10210;52.284;9.892;2023-04-08T13:33:36;101500.00;;;13.90
20103;BMP180;10210;52.284;9.892;2023-04-08T13:36:05;101497.00;;;13.90
20103;BMP180;10210;52.284;9.892;2023-04-08T13:38:30;101498.00;;;13.90
20103;BMP180;10210;52.284;9.892;2023-04-08T13:40:56;101501.00;;;13.90
20103;BMP180;10210;52.284;9.892;2023-04-08T13:43:22;101492.00;;;13.80
20103;BMP180;10210;52.284;9.892;2023-04-08T13:45:48;101495.00;;;13.80
20103;BMP180;10210;52.284;9.892;2023-04-08T13:48:13;101486.00;;;13.80
20103;BMP180;10210;52.284;9.892;2023-04-08T13:50:39;101490.00;;;13.80
20103;BMP180;10210;52.284;9.892;2023-04-08T13:53:06;101492.00;;;13.80
20103;BMP180;10210;52.284;9.892;2023-04-08T13:55:32;101488.00;;;13.90
20103;BMP180;10210;52.284;9.892;2023-04-08T13:57:57;101493.00;;;13.90
20103;BMP180;10210;52.284;9.892;2023-04-08T14:00:23;101490.00;;;13.90
20103;BMP180;10210;52.284;9.892;2023-04-08T14:02:50;101493.00;;;13.80
20103;BMP180;10210;52.284;9.892;2023-04-08T14:05:16;101495.00;;;13.80
20103;BMP180;10210;52.284;9.892;2023-04-08T14:07:41;101490.00;;;13.80
20103;BMP180;10210;52.284;9.892;2023-04-08T14:10:09;101499.00;;;13.80
20103;BMP180;10210;52.284;9.892;2023-04-08T14:12:35;101494.00;;;13.80
20103;BMP180;10210;52.284;9.892;2023-04-08T14:15:01;101495.00;;;13.80
20103;BMP180;10210;52.284;9.892;2023-04-08T14:17:27;101494.00;;;13.80
20103;BMP180;10210;52.284;9.892;2023-04-08T14:19:55;101499.00;;;13.80